createdAt,value
2019-02-02T00:01:16.603Z,20.40
2019-02-02T00:03:44.141Z,20.40
2019-02-02T00:06:11.767Z,19.77
2019-02-02T00:08:39.337Z,20.60
2019-02-02T00:11:06.804Z,18.23
2019-02-02T00:13:34.301Z,19.77
2019-02-02T00:16:01.806Z,18.03
2019-02-02T00:18:29.376Z,20.00
2019-02-02T00:20:56.870Z,19.43
2019-02-02T00:23:24.354Z,19.43
2019-02-02T00:25:51.797Z,19.67
2019-02-02T00:28:19.292Z,19.23
2019-02-02T00:30:46.789Z,19.47
2019-02-02T00:33:14.284Z,21.37
2019-02-02T00:35:41.790Z,21.00
2019-02-02T00:38:09.301Z,21.77
2019-02-02T00:40:36.795Z,20.27
2019-02-02T00:43:04.910Z,20.60
2019-02-02T00:45:32.418Z,20.70
2019-02-02T00:47:59.917Z,22.20
2019-02-02T00:50:27.419Z,21.47
2019-02-02T00:52:54.898Z,21.03
2019-02-02T00:55:22.413Z,21.20
2019-02-02T00:57:53.931Z,21.50
2019-02-02T01:00:19.375Z,19.73
2019-02-02T01:02:46.877Z,19.80
2019-02-02T01:05:15.386Z,20.93
2019-02-02T01:07:43.564Z,21.70
2019-02-02T01:10:15.398Z,21.20
2019-02-02T01:12:42.929Z,20.97
2019-02-02T01:15:10.594Z,20.67
2019-02-02T01:17:38.115Z,20.73
2019-02-02T01:20:05.982Z,20.37
2019-02-02T01:22:33.429Z,20.53
2019-02-02T01:25:00.919Z,20.07
2019-02-02T01:27:28.463Z,21.33
2019-02-02T01:29:55.931Z,21.77
2019-02-02T01:32:23.397Z,21.13
2019-02-02T01:34:50.858Z,20.07
2019-02-02T01:37:18.452Z,20.43
2019-02-02T01:39:45.976Z,21.73
2019-02-02T01:42:13.468Z,20.37
2019-02-02T01:44:40.982Z,20.07
2019-02-02T01:47:08.680Z,20.73
2019-02-02T01:49:36.166Z,20.00
2019-02-02T01:52:03.639Z,20.13
2019-02-02T01:54:31.158Z,20.03
2019-02-02T01:56:58.655Z,21.27
2019-02-02T01:59:26.128Z,19.40
2019-02-02T02:01:53.598Z,20.60
2019-02-02T02:04:21.136Z,19.77
2019-02-02T02:06:48.613Z,21.30
2019-02-02T02:09:16.131Z,19.47
2019-02-02T02:11:43.632Z,20.23
2019-02-02T02:14:11.135Z,19.53
2019-02-02T02:16:38.633Z,18.73
2019-02-02T02:19:06.181Z,19.20
2019-02-02T02:21:33.748Z,19.67
2019-02-02T02:24:01.220Z,20.23
2019-02-02T02:26:28.725Z,19.43
2019-02-02T02:28:56.218Z,18.63
2019-02-02T02:31:23.665Z,19.27
2019-02-02T02:33:51.190Z,20.03
2019-02-02T02:36:18.711Z,20.37
2019-02-02T02:38:46.293Z,19.53
2019-02-02T02:41:13.957Z,18.43
2019-02-02T02:43:41.540Z,18.73
2019-02-02T02:46:09.304Z,20.30
2019-02-02T02:48:36.768Z,20.07
2019-02-02T02:51:04.231Z,20.57
2019-02-02T02:53:31.825Z,19.93
2019-02-02T02:55:59.508Z,19.73
2019-02-02T02:58:26.985Z,18.83
2019-02-02T03:00:54.441Z,19.87
2019-02-02T03:03:22.059Z,20.80
2019-02-02T03:05:49.576Z,19.97
2019-02-02T03:08:17.307Z,19.37
2019-02-02T03:10:44.779Z,20.00
2019-02-02T03:13:12.254Z,19.93
2019-02-02T03:15:39.801Z,21.20
2019-02-02T03:18:07.292Z,19.67
2019-02-02T03:20:34.763Z,19.87
2019-02-02T03:23:02.310Z,20.40
2019-02-02T03:25:29.864Z,20.80
2019-02-02T03:27:57.373Z,19.10
2019-02-02T03:30:24.854Z,21.30
2019-02-02T03:32:52.358Z,20.93
2019-02-02T03:35:21.261Z,20.10
2019-02-02T03:37:48.908Z,19.47
2019-02-02T03:40:18.501Z,19.80
2019-02-02T03:42:45.963Z,19.77
2019-02-02T03:45:15.609Z,20.30
2019-02-02T03:47:43.241Z,19.73
2019-02-02T03:50:11.042Z,19.57
2019-02-02T03:52:40.213Z,20.30
2019-02-02T03:55:09.038Z,20.57
2019-02-02T03:57:36.629Z,19.53
2019-02-02T04:00:05.996Z,22.03
2019-02-02T04:02:33.477Z,21.67
2019-02-02T04:05:01.357Z,20.60
2019-02-02T04:07:31.009Z,19.97
2019-02-02T04:09:58.482Z,19.80
2019-02-02T04:12:26.171Z,20.60
2019-02-02T04:14:53.998Z,19.93
2019-02-02T04:17:21.580Z,21.03
2019-02-02T04:19:49.356Z,20.87
2019-02-02T04:22:16.998Z,20.73
2019-02-02T04:24:44.628Z,20.47
2019-02-02T04:27:12.165Z,20.47
2019-02-02T04:29:39.690Z,19.40
2019-02-02T04:32:07.645Z,21.57
2019-02-02T04:34:38.337Z,20.83
2019-02-02T04:37:05.811Z,20.87
2019-02-02T04:39:33.303Z,20.80
2019-02-02T04:42:02.603Z,21.47
2019-02-02T04:44:30.121Z,21.30
2019-02-02T04:46:57.704Z,21.37
2019-02-02T04:49:28.268Z,21.90
2019-02-02T04:51:55.969Z,21.70
2019-02-02T04:54:23.593Z,22.80
2019-02-02T04:56:51.219Z,21.90
2019-02-02T04:59:28.788Z,21.47
2019-02-02T05:01:48.186Z,23.50
2019-02-02T05:04:15.730Z,22.77
2019-02-02T05:06:43.606Z,22.03
2019-02-02T05:09:11.326Z,23.27
2019-02-02T05:11:38.996Z,21.27
2019-02-02T05:14:06.748Z,20.17
2019-02-02T05:16:34.145Z,20.17
2019-02-02T05:19:01.636Z,20.20
2019-02-02T05:21:29.429Z,22.10
2019-02-02T05:23:57.082Z,20.13
2019-02-02T05:26:29.106Z,20.13
2019-02-02T05:28:56.594Z,19.70
2019-02-02T05:31:24.146Z,20.47
2019-02-02T05:33:55.212Z,19.70
2019-02-02T05:36:25.203Z,20.10
2019-02-02T05:38:52.671Z,20.63
2019-02-02T05:41:20.244Z,20.57
2019-02-02T05:43:47.735Z,19.17
2019-02-02T05:46:15.252Z,21.40
2019-02-02T05:48:43.082Z,20.00
2019-02-02T05:51:15.494Z,21.13
2019-02-02T05:53:42.923Z,20.40
2019-02-02T05:56:15.588Z,20.83
2019-02-02T05:58:44.995Z,20.03
2019-02-02T06:01:16.896Z,20.30
2019-02-02T06:03:44.368Z,20.70
2019-02-02T06:06:11.876Z,22.23
2019-02-02T06:08:39.488Z,21.77
2019-02-02T06:11:09.624Z,21.07
2019-02-02T06:13:37.132Z,19.87
2019-02-02T06:16:04.597Z,19.53
2019-02-02T06:18:33.845Z,19.67
2019-02-02T06:21:01.374Z,20.27
2019-02-02T06:23:28.828Z,18.97
2019-02-02T06:25:56.373Z,19.37
2019-02-02T06:28:23.816Z,19.50
2019-02-02T06:30:51.282Z,19.77
2019-02-02T06:33:18.794Z,17.90
2019-02-02T06:35:46.296Z,18.47
2019-02-02T06:38:13.837Z,18.40
2019-02-02T06:40:41.335Z,20.07
2019-02-02T06:43:08.795Z,19.80
2019-02-02T06:45:36.356Z,18.70
2019-02-02T06:48:04.118Z,19.33
2019-02-02T06:50:31.650Z,19.57
2019-02-02T06:52:59.534Z,19.53
2019-02-02T06:55:27.082Z,19.67
2019-02-02T06:57:54.554Z,20.27
2019-02-02T07:00:26.214Z,20.80
2019-02-02T07:02:52.792Z,19.43
2019-02-02T07:05:20.383Z,19.70
2019-02-02T07:07:48.117Z,18.97
2019-02-02T07:10:21.101Z,19.67
2019-02-02T07:12:48.720Z,20.10
2019-02-02T07:15:16.793Z,20.87
2019-02-02T07:17:44.292Z,22.97
2019-02-02T07:20:12.578Z,22.17
2019-02-02T07:22:40.107Z,23.03
2019-02-02T07:25:08.122Z,24.47
2019-02-02T07:27:35.641Z,22.03
2019-02-02T07:30:05.381Z,22.70
2019-02-02T07:32:32.887Z,21.27
2019-02-02T07:35:00.408Z,22.40
2019-02-02T07:37:27.940Z,22.33
2019-02-02T07:39:55.514Z,23.60
2019-02-02T07:42:23.016Z,22.57
2019-02-02T07:44:50.577Z,23.67
2019-02-02T07:47:18.122Z,23.00
2019-02-02T07:49:45.601Z,25.67
2019-02-02T07:52:13.094Z,22.90
2019-02-02T07:54:40.606Z,23.47
2019-02-02T07:57:08.136Z,23.90
2019-02-02T07:59:35.625Z,25.33
2019-02-02T08:02:03.279Z,26.93
2019-02-02T08:04:30.756Z,26.67
2019-02-02T08:06:58.265Z,27.50
2019-02-02T08:09:25.793Z,26.67
2019-02-02T08:11:53.270Z,26.40
2019-02-02T08:14:20.765Z,28.00
2019-02-02T08:16:48.306Z,26.30
2019-02-02T08:19:15.792Z,26.63
2019-02-02T08:21:43.303Z,25.87
2019-02-02T08:24:10.832Z,26.80
2019-02-02T08:26:38.395Z,27.57
2019-02-02T08:29:06.312Z,25.50
2019-02-02T08:31:33.809Z,27.30
2019-02-02T08:34:01.337Z,27.20
2019-02-02T08:36:28.857Z,26.80
2019-02-02T08:38:56.368Z,27.53
2019-02-02T08:41:23.891Z,26.80
2019-02-02T08:43:51.804Z,28.93
2019-02-02T08:46:19.360Z,47.40
2019-02-02T08:48:46.869Z,29.50
2019-02-02T08:51:14.335Z,25.60
2019-02-02T08:53:41.905Z,26.30
2019-02-02T08:56:09.363Z,25.57
2019-02-02T08:58:38.848Z,23.70
2019-02-02T09:01:06.156Z,26.73
2019-02-02T09:03:33.700Z,26.23
2019-02-02T09:06:01.276Z,27.20
2019-02-02T09:08:28.774Z,27.43
2019-02-02T09:10:56.238Z,28.27
2019-02-02T09:13:23.715Z,29.73
2019-02-02T09:15:51.227Z,29.53
2019-02-02T09:18:18.750Z,30.57
2019-02-02T09:20:46.249Z,28.70
2019-02-02T09:23:13.717Z,29.43
2019-02-02T09:25:41.326Z,29.20
2019-02-02T09:28:09.103Z,27.27
2019-02-02T09:30:37.384Z,27.37
2019-02-02T09:33:05.837Z,30.60
2019-02-02T09:35:35.261Z,29.90
2019-02-02T09:38:02.770Z,27.53
2019-02-02T09:40:30.240Z,30.13
2019-02-02T09:42:57.759Z,27.87
2019-02-02T09:45:25.251Z,27.87
2019-02-02T09:47:52.858Z,28.37
2019-02-02T09:50:21.956Z,27.80
2019-02-02T09:52:49.453Z,27.17
2019-02-02T09:55:18.483Z,27.30
2019-02-02T09:57:46.018Z,27.87
2019-02-02T10:00:19.927Z,27.67
2019-02-02T10:02:47.428Z,28.93
2019-02-02T10:05:15.257Z,27.33
2019-02-02T10:07:43.029Z,28.80
2019-02-02T10:10:13.838Z,28.13
2019-02-02T10:12:41.310Z,28.37
2019-02-02T10:15:08.991Z,27.87
2019-02-02T10:17:36.450Z,27.57
2019-02-02T10:20:04.910Z,28.13
2019-02-02T10:22:32.400Z,27.13
2019-02-02T10:24:59.875Z,26.93
2019-02-02T10:27:27.380Z,27.23
2019-02-02T10:29:54.840Z,29.57
2019-02-02T10:32:22.357Z,27.53
2019-02-02T10:34:49.836Z,27.30
2019-02-02T10:37:17.348Z,26.77
2019-02-02T10:39:44.821Z,25.30
2019-02-02T10:42:12.347Z,25.73
2019-02-02T10:44:39.873Z,27.10
2019-02-02T10:47:07.387Z,27.97
2019-02-02T10:49:34.824Z,28.23
2019-02-02T10:52:02.555Z,26.83
2019-02-02T10:54:30.013Z,27.50
2019-02-02T10:56:57.494Z,29.90
2019-02-02T10:59:25.098Z,28.67
2019-02-02T11:01:52.571Z,27.80
2019-02-02T11:04:20.060Z,28.73
2019-02-02T11:06:47.615Z,26.97
2019-02-02T11:09:15.166Z,26.43
2019-02-02T11:11:42.698Z,27.13
2019-02-02T11:14:10.143Z,26.67
2019-02-02T11:16:37.749Z,26.03
2019-02-02T11:19:05.212Z,25.47
2019-02-02T11:21:35.437Z,25.47
2019-02-02T11:24:03.303Z,26.47
2019-02-02T11:26:30.755Z,27.30
2019-02-02T11:28:58.311Z,25.83
2019-02-02T11:31:25.799Z,28.93
2019-02-02T11:33:53.327Z,28.03
2019-02-02T11:36:20.828Z,26.93
2019-02-02T11:38:48.520Z,25.67
2019-02-02T11:41:15.972Z,25.57
2019-02-02T11:43:43.546Z,26.73
2019-02-02T11:46:11.121Z,26.73
2019-02-02T11:48:38.624Z,26.57
2019-02-02T11:51:06.104Z,25.70
2019-02-02T11:53:33.589Z,27.97
2019-02-02T11:56:01.123Z,25.40
2019-02-02T11:58:28.587Z,23.70
2019-02-02T12:00:56.091Z,25.23
2019-02-02T12:03:23.620Z,25.20
2019-02-02T12:05:51.101Z,25.50
2019-02-02T12:08:18.583Z,26.07
2019-02-02T12:10:46.137Z,27.03
2019-02-02T12:13:13.671Z,25.60
2019-02-02T12:15:41.192Z,27.03
2019-02-02T12:18:11.698Z,26.20
2019-02-02T12:20:38.262Z,26.50
2019-02-02T12:23:06.817Z,26.83
2019-02-02T12:25:34.315Z,34.93
2019-02-02T12:28:01.834Z,26.57
2019-02-02T12:30:31.435Z,25.03
2019-02-02T12:32:58.999Z,26.97
2019-02-02T12:35:27.018Z,27.90
2019-02-02T12:37:54.838Z,27.80
2019-02-02T12:40:22.552Z,25.90
2019-02-02T12:42:50.064Z,28.83
2019-02-02T12:45:54.761Z,26.77
2019-02-02T12:48:22.305Z,25.70
2019-02-02T12:50:49.804Z,24.07
2019-02-02T12:53:17.685Z,24.70
2019-02-02T12:55:45.204Z,24.67
2019-02-02T12:58:12.718Z,24.33
2019-02-02T13:00:40.611Z,23.03
2019-02-02T13:03:08.079Z,23.20
2019-02-02T13:05:35.632Z,24.03
2019-02-02T13:08:05.290Z,24.20
2019-02-02T13:10:33.171Z,25.10
2019-02-02T13:13:00.682Z,24.07
2019-02-02T13:15:28.248Z,23.80
2019-02-02T13:17:55.708Z,25.40
2019-02-02T13:20:23.352Z,21.97
2019-02-02T13:22:50.883Z,25.37
2019-02-02T13:25:19.609Z,24.33
2019-02-02T13:27:47.117Z,24.63
2019-02-02T13:30:18.137Z,25.27
2019-02-02T13:32:49.816Z,25.93
2019-02-02T13:35:15.050Z,26.07
2019-02-02T13:37:42.563Z,25.97
2019-02-02T13:40:12.941Z,24.63
2019-02-02T13:42:40.572Z,25.77
2019-02-02T13:45:09.381Z,25.80
2019-02-02T13:47:37.156Z,25.03
2019-02-02T13:50:07.044Z,26.20
2019-02-02T13:52:34.600Z,25.57
2019-02-02T13:55:02.364Z,26.57
2019-02-02T13:57:29.831Z,24.20
2019-02-02T13:59:57.556Z,26.77
2019-02-02T14:02:25.567Z,26.47
2019-02-02T14:04:53.473Z,26.23
2019-02-02T14:07:20.941Z,25.73
2019-02-02T14:09:48.569Z,26.43
2019-02-02T14:12:15.993Z,28.03
2019-02-02T14:14:45.351Z,27.90
2019-02-02T14:20:00.767Z,25.80
2019-02-02T14:22:28.334Z,26.73
2019-02-02T14:24:58.706Z,26.10
2019-02-02T14:27:27.821Z,27.13
2019-02-02T14:29:58.408Z,27.67
2019-02-02T14:32:28.007Z,28.10
2019-02-02T14:34:57.554Z,25.67
2019-02-02T14:37:25.315Z,27.93
2019-02-02T14:39:55.833Z,26.77
2019-02-02T14:45:12.773Z,28.07
2019-02-02T14:47:40.289Z,27.97
2019-02-02T14:50:12.757Z,29.03
2019-02-02T14:52:41.818Z,29.13
2019-02-02T14:55:12.378Z,28.37
2019-02-02T14:57:40.152Z,27.87
2019-02-02T15:00:12.190Z,61.00
2019-02-02T15:02:39.712Z,31.67
2019-02-02T15:05:09.491Z,29.13
2019-02-02T15:07:37.090Z,29.70
2019-02-02T15:10:04.814Z,28.87
2019-02-02T15:12:32.653Z,28.03
2019-02-02T15:15:05.810Z,27.47
2019-02-02T15:17:32.693Z,28.83
2019-02-02T15:20:00.274Z,28.47
2019-02-02T15:22:28.880Z,30.07
2019-02-02T15:24:56.605Z,29.50
2019-02-02T15:27:24.213Z,30.87
2019-02-02T15:29:54.499Z,30.83
2019-02-02T15:32:21.570Z,31.70
2019-02-02T15:34:49.101Z,29.43
2019-02-02T15:37:16.708Z,30.73
2019-02-02T15:39:44.185Z,29.90
2019-02-02T15:42:12.006Z,30.23
2019-02-02T15:44:39.527Z,29.77
2019-02-02T15:47:08.800Z,30.83
2019-02-02T15:49:36.496Z,32.10
2019-02-02T15:52:04.357Z,30.20
2019-02-02T15:54:32.027Z,32.07
2019-02-02T15:56:59.530Z,28.67
2019-02-02T15:59:27.198Z,30.73
2019-02-02T16:01:55.878Z,31.67
2019-02-02T16:04:23.396Z,34.97
2019-02-02T16:06:51.222Z,34.90
2019-02-02T16:09:19.986Z,36.83
2019-02-02T16:11:47.525Z,35.50
2019-02-02T16:14:15.075Z,34.50
2019-02-02T16:16:42.615Z,34.17
2019-02-02T16:19:12.393Z,34.27
2019-02-02T16:21:40.037Z,33.27
2019-02-02T16:24:07.857Z,32.53
2019-02-02T16:26:35.449Z,33.20
2019-02-02T16:29:03.027Z,34.07
2019-02-02T16:31:30.711Z,35.37
2019-02-02T16:34:02.340Z,39.30
2019-02-02T16:36:27.831Z,42.90
2019-02-02T16:38:55.466Z,41.63
2019-02-02T16:41:23.123Z,41.67
2019-02-02T16:43:50.606Z,41.93
2019-02-02T16:46:18.196Z,42.90
2019-02-02T16:48:45.845Z,86.80
2019-02-02T16:51:13.524Z,45.80
2019-02-02T16:53:41.205Z,47.67
2019-02-02T16:56:08.983Z,50.87
2019-02-02T16:58:38.423Z,53.27
2019-02-02T17:01:06.154Z,52.43
2019-02-02T17:03:34.058Z,49.47
2019-02-02T17:06:04.621Z,52.00
2019-02-02T17:08:32.399Z,50.43
2019-02-02T17:11:00.107Z,51.87
2019-02-02T17:13:27.712Z,50.20
2019-02-02T17:15:55.293Z,49.33
2019-02-02T17:18:22.815Z,48.23
2019-02-02T17:20:50.272Z,44.63
2019-02-02T17:23:17.821Z,45.53
2019-02-02T17:25:45.344Z,48.20
2019-02-02T17:28:12.896Z,46.50
2019-02-02T17:30:40.376Z,47.73
2019-02-02T17:33:10.403Z,48.27
2019-02-02T17:35:37.888Z,46.47
2019-02-02T17:38:05.438Z,43.40
2019-02-02T17:40:32.924Z,43.43
2019-02-02T17:43:00.426Z,44.87
2019-02-02T17:45:28.213Z,42.90
2019-02-02T17:47:55.706Z,44.93
2019-02-02T17:50:23.874Z,43.63
2019-02-02T17:52:51.415Z,42.80
2019-02-02T17:55:18.989Z,40.87
2019-02-02T17:57:46.726Z,42.00
2019-02-02T18:00:51.339Z,42.20
2019-02-02T18:03:18.869Z,38.87
2019-02-02T18:05:46.377Z,41.73
2019-02-02T18:08:13.869Z,39.53
2019-02-02T18:10:41.428Z,39.67
2019-02-02T18:13:08.910Z,41.33
2019-02-02T18:15:36.392Z,40.10
2019-02-02T18:18:04.565Z,41.03
2019-02-02T18:20:32.081Z,50.13
2019-02-02T18:23:02.363Z,43.37
2019-02-02T18:25:29.866Z,40.50
2019-02-02T18:27:57.414Z,42.50
2019-02-02T18:30:25.006Z,41.97
2019-02-02T18:32:52.930Z,41.13
2019-02-02T18:35:20.480Z,41.80
2019-02-02T18:37:47.990Z,42.30
2019-02-02T18:40:16.623Z,42.37
2019-02-02T18:42:44.149Z,43.30
2019-02-02T18:45:14.761Z,43.07
2019-02-02T18:47:42.236Z,43.03
2019-02-02T18:50:11.795Z,46.33
2019-02-02T18:52:39.473Z,44.73
2019-02-02T18:55:09.336Z,44.73
2019-02-02T18:57:36.889Z,43.83
2019-02-02T19:00:07.192Z,44.80
2019-02-02T19:02:34.668Z,44.53
2019-02-02T19:05:03.703Z,43.07
2019-02-02T19:07:31.514Z,41.67
2019-02-02T19:09:59.003Z,41.37
2019-02-02T19:12:26.524Z,40.90
2019-02-02T19:14:54.026Z,40.60
2019-02-02T19:17:21.506Z,39.20
2019-02-02T19:19:49.057Z,39.80
2019-02-02T19:22:16.640Z,38.63
2019-02-02T19:24:44.132Z,38.00
2019-02-02T19:27:11.688Z,39.40
2019-02-02T19:29:39.177Z,39.43
2019-02-02T19:32:06.786Z,39.80
2019-02-02T19:34:34.332Z,39.73
2019-02-02T19:37:01.879Z,114.53
2019-02-02T19:39:29.377Z,43.90
2019-02-02T19:41:58.907Z,42.47
2019-02-02T19:44:26.484Z,40.90
2019-02-02T19:46:53.995Z,40.87
2019-02-02T19:49:21.534Z,40.80
2019-02-02T19:51:49.039Z,39.90
2019-02-02T19:54:16.576Z,41.03
2019-02-02T19:56:44.659Z,39.93
2019-02-02T19:59:12.213Z,38.83
2019-02-02T20:01:39.700Z,38.77
2019-02-02T20:04:07.322Z,37.40
2019-02-02T20:06:34.808Z,35.60
2019-02-02T20:09:03.376Z,34.10
2019-02-02T20:11:30.852Z,34.67
2019-02-02T20:13:58.355Z,33.77
2019-02-02T20:16:25.834Z,35.73
2019-02-02T20:18:53.307Z,35.53
2019-02-02T20:21:20.838Z,35.47
2019-02-02T20:23:48.347Z,35.13
2019-02-02T20:26:15.850Z,35.00
2019-02-02T20:28:46.518Z,35.03
2019-02-02T20:31:12.812Z,34.00
2019-02-02T20:33:40.276Z,35.70
2019-02-02T20:36:07.768Z,34.70
2019-02-02T20:38:35.489Z,35.17
2019-02-02T20:41:03.088Z,35.87
2019-02-02T20:43:30.587Z,32.30
2019-02-02T20:45:59.242Z,31.87
2019-02-02T20:48:26.752Z,31.93
2019-02-02T20:50:54.291Z,32.23
2019-02-02T20:53:21.799Z,32.80
2019-02-02T20:55:49.256Z,33.80
2019-02-02T20:58:16.743Z,31.40
2019-02-02T21:00:44.270Z,32.67
2019-02-02T21:03:11.854Z,33.53
2019-02-02T21:05:39.350Z,32.37
2019-02-02T21:08:06.971Z,33.03
2019-02-02T21:10:34.544Z,32.20
2019-02-02T21:13:02.071Z,32.13
2019-02-02T21:15:29.816Z,31.13
2019-02-02T21:17:57.303Z,32.13
2019-02-02T21:20:26.562Z,34.97
2019-02-02T21:22:54.082Z,35.80
2019-02-02T21:25:21.723Z,34.97
2019-02-02T21:27:49.276Z,36.47
2019-02-02T21:30:19.341Z,35.47
2019-02-02T21:32:47.067Z,33.57
2019-02-02T21:35:14.904Z,35.17
2019-02-02T21:37:42.580Z,54.23
2019-02-02T21:40:12.894Z,36.77
2019-02-02T21:42:40.685Z,35.63
2019-02-02T21:45:12.569Z,35.47
2019-02-02T21:47:59.883Z,32.93
2019-02-02T21:50:28.666Z,34.47
2019-02-02T21:52:59.372Z,33.60
2019-02-02T21:55:27.650Z,34.27
2019-02-02T21:57:55.276Z,30.73
2019-02-02T22:00:25.615Z,32.37
2019-02-02T22:02:53.365Z,33.77
2019-02-02T22:05:20.978Z,34.17
2019-02-02T22:07:50.896Z,32.83
2019-02-02T22:10:18.630Z,33.40
2019-02-02T22:12:46.166Z,33.80
2019-02-02T22:15:17.489Z,34.40
2019-02-02T22:17:45.640Z,36.63
2019-02-02T22:20:13.630Z,36.23
2019-02-02T22:22:41.213Z,36.37
2019-02-02T22:25:12.051Z,34.37
2019-02-02T22:27:40.284Z,33.93
2019-02-02T22:30:11.042Z,35.77
2019-02-02T22:32:38.567Z,34.03
2019-02-02T22:35:06.544Z,34.40
2019-02-02T22:37:34.311Z,36.37
2019-02-02T22:40:01.974Z,35.97
2019-02-02T22:42:30.012Z,35.87
2019-02-02T22:44:57.778Z,34.40
2019-02-02T22:47:25.511Z,35.00
2019-02-02T22:49:53.236Z,34.10
2019-02-02T22:52:20.844Z,34.00
2019-02-02T22:54:48.529Z,32.33
2019-02-02T22:57:16.381Z,34.30
2019-02-02T22:59:44.030Z,32.47
2019-02-02T23:02:18.461Z,33.97
2019-02-02T23:05:25.128Z,34.60
2019-02-02T23:08:24.909Z,32.50
2019-02-02T23:11:11.178Z,30.47
2019-02-02T23:14:20.097Z,34.10
2019-02-02T23:16:47.769Z,30.73
2019-02-02T23:19:15.280Z,33.30
2019-02-02T23:21:45.664Z,32.23
2019-02-02T23:24:13.161Z,33.83
2019-02-02T23:26:41.109Z,33.00
2019-02-02T23:29:08.694Z,33.87
2019-02-02T23:31:38.803Z,31.93
2019-02-02T23:34:06.377Z,34.37
2019-02-02T23:36:34.163Z,32.10
2019-02-02T23:39:01.646Z,32.03
2019-02-02T23:41:29.318Z,32.13
2019-02-02T23:43:57.415Z,32.53
2019-02-02T23:46:25.129Z,33.07
2019-02-02T23:48:52.646Z,33.70
2019-02-02T23:51:20.277Z,32.53
2019-02-02T23:53:48.122Z,33.67
2019-02-02T23:56:15.635Z,30.03
2019-02-02T23:58:43.578Z,28.13
